Time;durP1;ratioP1;P1;durP2;ratioP2;P2;SDS_P1;SDS_P2;PMS_P1;PMS_P2;Temp;Humidity;BMP_temperature;BMP_pressure;BME280_temperature;BME280_humidity;BME280_pressure;Samples;Min_cycle;Max_cycle;Signal;HPM_P1;HPM_P2
2023/09/24 00:01:12;;;;;;;7.70;6.90;;;11.40;99.90;;;;;;5029633;28;20048;-87
2023/09/24 00:03:38;;;;;;;8.70;6.70;;;11.40;99.90;;;;;;5034482;28;20085;-88
2023/09/24 00:06:08;;;;;;;8.55;7.20;;;11.40;99.90;;;;;;5034987;28;20048;-85
2023/09/24 00:08:34;;;;;;;7.15;6.45;;;11.40;99.90;;;;;;5027962;28;20018;-85
2023/09/24 00:11:00;;;;;;;9.73;7.38;;;11.50;99.90;;;;;;5035524;28;20045;-85
2023/09/24 00:13:26;;;;;;;12.07;8.90;;;11.50;99.90;;;;;;5031248;28;20040;-87
2023/09/24 00:15:52;;;;;;;10.55;8.82;;;11.50;99.90;;;;;;5033658;28;20077;-88
2023/09/24 00:18:19;;;;;;;11.77;8.93;;;11.50;99.90;;;;;;5026214;28;20022;-87
2023/09/24 00:20:45;;;;;;;8.88;7.28;;;11.50;99.90;;;;;;5023798;28;20034;-88
2023/09/24 00:23:14;;;;;;;10.00;8.50;;;11.50;99.90;;;;;;5030639;28;20082;-87
2023/09/24 00:25:40;;;;;;;11.00;9.05;;;11.50;99.90;;;;;;5042505;28;20041;-88
2023/09/24 00:28:09;;;;;;;9.70;7.68;;;11.50;99.90;;;;;;5039800;28;20013;-86
2023/09/24 00:30:36;;;;;;;8.07;7.30;;;11.50;99.90;;;;;;5030341;28;20010;-87
2023/09/24 00:33:03;;;;;;;9.70;8.60;;;11.50;99.90;;;;;;5027898;28;20013;-88
2023/09/24 00:35:30;;;;;;;9.45;8.40;;;11.60;99.90;;;;;;5028410;28;20324;-87
2023/09/24 00:37:56;;;;;;;10.68;8.65;;;11.60;99.90;;;;;;5028360;28;20045;-88
2023/09/24 00:40:21;;;;;;;11.73;8.23;;;11.60;99.90;;;;;;5040019;28;20005;-86
2023/09/24 00:42:47;;;;;;;11.15;8.77;;;11.60;99.90;;;;;;5025471;28;20015;-88
2023/09/24 00:45:14;;;;;;;10.18;8.55;;;11.60;99.90;;;;;;5031285;28;20048;-88
2023/09/24 00:47:42;;;;;;;9.68;7.97;;;11.60;99.90;;;;;;5033610;28;20046;-88
2023/09/24 00:50:09;;;;;;;9.55;8.00;;;11.60;99.90;;;;;;5036868;28;20017;-89
2023/09/24 00:52:35;;;;;;;8.20;7.35;;;11.60;99.90;;;;;;5027144;28;20348;-89
2023/09/24 00:55:04;;;;;;;9.90;8.15;;;11.50;99.90;;;;;;5028145;28;20025;-87
2023/09/24 00:57:32;;;;;;;9.65;8.60;;;11.60;99.90;;;;;;5036449;28;20026;-89
2023/09/24 00:59:59;;;;;;;8.85;7.82;;;11.60;99.90;;;;;;5030790;28;20037;-88
2023/09/24 01:02:25;;;;;;;9.32;7.45;;;11.50;99.90;;;;;;5035457;28;20101;-88
2023/09/24 01:04:53;;;;;;;8.07;7.13;;;11.50;99.90;;;;;;5025995;28;20053;-86
2023/09/24 01:07:21;;;;;;;7.57;6.30;;;11.50;99.90;;;;;;5032676;28;20026;-88
2023/09/24 01:09:48;;;;;;;9.20;6.85;;;11.40;99.90;;;;;;5033239;28;20033;-89
2023/09/24 01:12:25;;;;;;;9.90;8.18;;;11.40;99.90;;;;;;5036630;28;20599;-88
2023/09/24 01:14:53;;;;;;;10.23;8.25;;;11.30;99.90;;;;;;5035788;28;20022;-89
2023/09/24 01:17:20;;;;;;;8.25;7.40;;;11.30;99.90;;;;;;5029683;28;20022;-89
2023/09/24 01:19:46;;;;;;;7.85;7.05;;;11.30;99.90;;;;;;5034883;28;20037;-87
2023/09/24 01:22:12;;;;;;;7.68;6.72;;;11.30;99.90;;;;;;5040037;28;20022;-88
2023/09/24 01:24:37;;;;;;;11.38;7.72;;;11.30;99.90;;;;;;5036476;28;20042;-89
2023/09/24 01:27:03;;;;;;;9.60;6.97;;;11.20;99.90;;;;;;5029837;28;20046;-89
2023/09/24 01:29:28;;;;;;;6.80;6.05;;;11.10;99.90;;;;;;5036396;28;20018;-88
2023/09/24 01:31:54;;;;;;;9.20;7.20;;;11.10;99.90;;;;;;5036358;28;20045;-91
2023/09/24 01:34:20;;;;;;;9.25;7.05;;;11.10;99.90;;;;;;5025852;28;20030;-88
2023/09/24 01:36:46;;;;;;;8.27;7.03;;;11.00;99.90;;;;;;5032161;28;20037;-89
2023/09/24 01:39:18;;;;;;;6.80;6.10;;;11.00;99.90;;;;;;5036216;28;20041;-89
2023/09/24 01:41:45;;;;;;;6.15;5.10;;;11.00;99.90;;;;;;5040402;28;20042;-89
2023/09/24 01:44:13;;;;;;;7.22;6.35;;;10.90;99.90;;;;;;5037713;28;20029;-89
2023/09/24 01:46:38;;;;;;;8.13;6.32;;;10.90;99.90;;;;;;5033135;28;20030;-90
2023/09/24 01:49:04;;;;;;;7.07;6.32;;;10.90;99.90;;;;;;5035446;28;20041;-90
2023/09/24 01:51:31;;;;;;;7.20;5.88;;;10.80;99.90;;;;;;5034450;28;20017;-88
2023/09/24 01:53:59;;;;;;;10.45;7.07;;;10.80;99.90;;;;;;5030662;28;20024;-88
2023/09/24 01:56:24;;;;;;;6.88;5.78;;;10.70;99.90;;;;;;5044954;28;20035;-88
2023/09/24 01:58:51;;;;;;;7.00;6.00;;;10.70;99.90;;;;;;5031647;28;20022;-90
2023/09/24 02:01:17;;;;;;;7.25;6.25;;;10.70;99.90;;;;;;5036745;28;20014;-89
2023/09/24 02:03:46;;;;;;;7.95;6.38;;;10.70;99.90;;;;;;5030340;28;20024;-89
2023/09/24 02:06:14;;;;;;;6.53;5.88;;;10.60;99.90;;;;;;5029168;28;20088;-89
2023/09/24 02:08:40;;;;;;;6.63;5.72;;;10.60;99.90;;;;;;5027773;28;20030;-88
2023/09/24 02:11:06;;;;;;;7.70;5.93;;;10.50;99.90;;;;;;5038045;28;20087;-89
2023/09/24 02:13:31;;;;;;;5.78;5.07;;;10.50;99.90;;;;;;5038742;28;20025;-89
2023/09/24 02:16:01;;;;;;;6.45;5.68;;;10.50;99.90;;;;;;5035676;28;20126;-89
2023/09/24 02:18:32;;;;;;;5.90;5.15;;;10.50;99.90;;;;;;5031479;28;20017;-89
2023/09/24 02:20:59;;;;;;;5.47;4.97;;;10.40;99.90;;;;;;5033780;28;20069;-90
2023/09/24 02:23:25;;;;;;;8.10;5.97;;;10.40;99.90;;;;;;5043042;28;20010;-89
2023/09/24 02:25:51;;;;;;;6.72;5.82;;;10.40;99.90;;;;;;5040060;28;20033;-88
2023/09/24 02:28:18;;;;;;;7.00;6.20;;;10.40;99.90;;;;;;5053916;28;20025;-88
2023/09/24 02:30:45;;;;;;;7.78;6.57;;;10.40;99.90;;;;;;5032344;28;20041;-89
2023/09/24 02:33:11;;;;;;;7.20;6.22;;;10.40;99.90;;;;;;5038280;28;20026;-88
2023/09/24 02:35:37;;;;;;;6.88;6.15;;;10.40;99.90;;;;;;5035838;28;20052;-87
2023/09/24 02:38:04;;;;;;;7.28;5.80;;;10.30;99.90;;;;;;5036050;28;20049;-87
2023/09/24 02:40:30;;;;;;;8.02;5.85;;;10.30;99.90;;;;;;5036136;28;20021;-88
2023/09/24 02:43:01;;;;;;;6.88;6.18;;;10.30;99.90;;;;;;5039643;28;20109;-87
2023/09/24 02:45:28;;;;;;;6.95;5.38;;;10.30;99.90;;;;;;5040301;28;20029;-87
2023/09/24 02:47:54;;;;;;;9.32;7.03;;;10.20;99.90;;;;;;5038398;28;20029;-88
2023/09/24 02:50:24;;;;;;;8.68;5.50;;;10.30;99.90;;;;;;5046583;28;20020;-88
2023/09/24 02:52:55;;;;;;;6.95;6.05;;;10.20;99.90;;;;;;5043646;28;20014;-89
2023/09/24 02:55:22;;;;;;;5.18;4.68;;;10.20;99.90;;;;;;5043031;28;20018;-87
2023/09/24 02:57:51;;;;;;;8.50;6.38;;;10.20;99.90;;;;;;5043113;28;20018;-89
2023/09/24 03:00:19;;;;;;;10.00;6.30;;;10.20;99.90;;;;;;5037609;28;20057;-88
2023/09/24 03:02:48;;;;;;;9.70;6.38;;;10.20;99.90;;;;;;5045424;28;20137;-88
2023/09/24 03:05:20;;;;;;;7.15;6.00;;;10.20;99.90;;;;;;5039409;28;20025;-87
2023/09/24 03:07:46;;;;;;;6.40;5.80;;;10.20;99.90;;;;;;5040629;28;20608;-89
2023/09/24 03:10:13;;;;;;;6.55;5.85;;;10.20;99.90;;;;;;5040243;28;20089;-86
2023/09/24 03:12:39;;;;;;;7.93;5.55;;;10.20;99.90;;;;;;5043973;28;20037;-87
2023/09/24 03:15:06;;;;;;;7.63;5.97;;;10.20;99.90;;;;;;5037293;28;20014;-88
2023/09/24 03:17:35;;;;;;;6.43;5.25;;;10.10;99.90;;;;;;5038342;28;20018;-88
2023/09/24 03:20:04;;;;;;;6.25;5.53;;;10.10;99.90;;;;;;5047671;28;20028;-87
2023/09/24 03:22:30;;;;;;;6.50;5.82;;;10.10;99.90;;;;;;5036745;28;20242;-89
2023/09/24 03:24:57;;;;;;;7.05;6.30;;;10.10;99.90;;;;;;5035064;28;20068;-88
2023/09/24 03:27:22;;;;;;;7.20;5.45;;;10.10;99.90;;;;;;5044201;28;20053;-89
2023/09/24 03:29:48;;;;;;;9.18;6.40;;;10.10;99.90;;;;;;5033081;28;20033;-88
2023/09/24 03:32:14;;;;;;;6.70;5.97;;;10.00;99.90;;;;;;5039240;28;20077;-88
2023/09/24 03:34:40;;;;;;;6.10;5.13;;;10.00;99.90;;;;;;5032115;28;20037;-88
2023/09/24 03:37:09;;;;;;;6.70;5.30;;;10.00;99.90;;;;;;5036873;28;20025;-89
2023/09/24 03:39:35;;;;;;;6.57;5.35;;;9.90;99.90;;;;;;5038576;28;20014;-89
2023/09/24 03:42:00;;;;;;;7.18;5.65;;;9.90;99.90;;;;;;5042021;28;20017;-89
2023/09/24 03:44:26;;;;;;;6.55;5.40;;;9.90;99.90;;;;;;5039471;28;20013;-89
2023/09/24 03:46:52;;;;;;;6.07;5.00;;;9.90;99.90;;;;;;5035160;28;20034;-89
2023/09/24 03:49:17;;;;;;;6.50;5.22;;;9.90;99.90;;;;;;5043708;28;20030;-88
2023/09/24 03:51:46;;;;;;;8.27;5.22;;;9.90;99.90;;;;;;5032169;28;20030;-88
2023/09/24 03:54:11;;;;;;;9.13;5.90;;;9.90;99.90;;;;;;5027513;28;20025;-90
2023/09/24 03:56:37;;;;;;;8.48;5.60;;;9.90;99.90;;;;;;5027392;28;20113;-87
2023/09/24 03:59:03;;;;;;;5.90;5.18;;;9.90;99.90;;;;;;5035062;28;20022;-87
2023/09/24 04:01:31;;;;;;;7.63;6.35;;;9.80;99.90;;;;;;5029781;28;20034;-88
2023/09/24 04:03:59;;;;;;;5.13;4.63;;;9.80;99.90;;;;;;5031930;28;20018;-88
2023/09/24 04:06:25;;;;;;;7.18;5.45;;;9.80;99.90;;;;;;5035639;28;20040;-86
2023/09/24 04:08:51;;;;;;;6.40;5.55;;;9.80;99.90;;;;;;5027013;28;20018;-88
2023/09/24 04:11:17;;;;;;;6.30;5.32;;;9.80;99.90;;;;;;5038668;28;20033;-88
2023/09/24 04:13:43;;;;;;;6.85;4.95;;;9.80;99.90;;;;;;5029834;28;20025;-88
2023/09/24 04:16:10;;;;;;;5.28;4.78;;;9.80;99.90;;;;;;5039552;28;20120;-87
2023/09/24 04:18:36;;;;;;;5.90;5.05;;;9.70;99.90;;;;;;5031930;28;20038;-88
2023/09/24 04:21:02;;;;;;;6.07;5.22;;;9.70;99.90;;;;;;5032698;28;20061;-87
2023/09/24 04:23:28;;;;;;;5.78;4.97;;;9.70;99.90;;;;;;5033025;28;20029;-88
2023/09/24 04:25:54;;;;;;;5.78;4.72;;;9.70;99.90;;;;;;5032737;28;20025;-87
2023/09/24 04:28:20;;;;;;;6.95;5.38;;;9.60;99.90;;;;;;5034626;28;20030;-88
2023/09/24 04:30:46;;;;;;;6.60;4.90;;;9.60;99.90;;;;;;5028668;28;20014;-87
2023/09/24 04:33:12;;;;;;;9.18;5.97;;;9.60;99.90;;;;;;5040518;28;20048;-87
2023/09/24 04:35:38;;;;;;;6.47;5.50;;;9.50;99.90;;;;;;5030810;28;20023;-88
2023/09/24 04:38:06;;;;;;;8.38;4.75;;;9.50;99.90;;;;;;5038627;28;20132;-87
2023/09/24 04:40:34;;;;;;;8.10;5.70;;;9.50;99.90;;;;;;5024902;28;20010;-87
2023/09/24 04:42:59;;;;;;;6.82;5.22;;;9.50;99.90;;;;;;5028289;28;20030;-89
2023/09/24 04:45:25;;;;;;;5.03;4.53;;;9.50;99.90;;;;;;5031516;28;20029;-87
2023/09/24 04:47:51;;;;;;;6.80;5.47;;;9.50;99.90;;;;;;5027693;28;20040;-86
2023/09/24 04:50:17;;;;;;;8.40;6.03;;;9.50;99.90;;;;;;5043288;28;20018;-88
2023/09/24 04:52:44;;;;;;;4.47;4.05;;;9.50;99.90;;;;;;5038506;28;20032;-88
2023/09/24 04:55:11;;;;;;;8.48;5.63;;;9.40;99.90;;;;;;5032929;28;20033;-86
2023/09/24 04:57:36;;;;;;;6.22;5.15;;;9.40;99.90;;;;;;5022990;28;20014;-87
2023/09/24 05:00:03;;;;;;;4.80;4.28;;;9.40;99.90;;;;;;5041128;28;20030;-85
2023/09/24 05:02:29;;;;;;;6.15;5.53;;;9.40;99.90;;;;;;5027539;28;20029;-87
2023/09/24 05:04:55;;;;;;;5.70;4.97;;;9.40;99.90;;;;;;5039481;28;20033;-86
2023/09/24 05:07:20;;;;;;;4.90;4.47;;;9.40;99.90;;;;;;5034232;28;20018;-88
2023/09/24 05:09:46;;;;;;;7.45;5.38;;;9.30;99.90;;;;;;5028750;28;20064;-87
2023/09/24 05:12:13;;;;;;;7.60;5.45;;;9.30;99.90;;;;;;5028789;28;20037;-86
2023/09/24 05:14:39;;;;;;;4.45;4.03;;;9.30;99.90;;;;;;5030477;28;20021;-86
2023/09/24 05:17:04;;;;;;;5.55;4.95;;;9.20;99.90;;;;;;5028204;28;20006;-86
2023/09/24 05:19:31;;;;;;;5.53;4.93;;;9.20;99.90;;;;;;5032654;28;20026;-86
2023/09/24 05:21:57;;;;;;;5.28;4.18;;;9.20;99.90;;;;;;5035147;28;20034;-86
2023/09/24 05:24:22;;;;;;;6.60;5.07;;;9.20;99.90;;;;;;5027214;28;20073;-86
2023/09/24 05:26:48;;;;;;;6.43;5.03;;;9.20;99.90;;;;;;5025599;28;20029;-86
2023/09/24 05:29:13;;;;;;;6.93;5.10;;;9.10;99.90;;;;;;5027822;28;20032;-86
2023/09/24 05:31:39;;;;;;;5.45;4.85;;;9.20;99.90;;;;;;5011357;28;20039;-86
2023/09/24 05:34:05;;;;;;;5.97;4.97;;;9.20;99.90;;;;;;5021749;28;20040;-87
2023/09/24 05:36:32;;;;;;;5.43;4.50;;;9.10;99.90;;;;;;5021614;28;20054;-87
2023/09/24 05:38:58;;;;;;;4.85;4.28;;;9.10;99.90;;;;;;5023137;28;20026;-86
2023/09/24 05:41:24;;;;;;;6.03;4.53;;;9.10;99.90;;;;;;5017241;28;20050;-85
2023/09/24 05:43:50;;;;;;;6.80;5.03;;;9.10;99.90;;;;;;5023433;28;20026;-86
2023/09/24 05:46:15;;;;;;;6.82;4.70;;;9.10;99.90;;;;;;5018038;28;20539;-87
2023/09/24 05:48:41;;;;;;;5.30;4.78;;;9.10;99.90;;;;;;5032599;28;20049;-87
2023/09/24 05:51:07;;;;;;;8.05;5.20;;;9.10;99.90;;;;;;5023327;28;20025;-87
2023/09/24 05:53:33;;;;;;;6.22;4.80;;;9.10;99.90;;;;;;5016418;28;20033;-86
2023/09/24 05:56:00;;;;;;;4.03;3.50;;;9.10;99.90;;;;;;5028870;28;20021;-87
2023/09/24 05:58:26;;;;;;;5.85;3.95;;;9.10;99.90;;;;;;5032267;28;20017;-87
2023/09/24 06:00:51;;;;;;;5.20;4.22;;;9.20;99.90;;;;;;5031515;28;20197;-87
2023/09/24 06:03:17;;;;;;;5.13;4.63;;;9.20;99.90;;;;;;5024334;28;20064;-87
2023/09/24 06:05:43;;;;;;;8.05;5.25;;;9.20;99.90;;;;;;5040435;28;20065;-86
2023/09/24 06:08:08;;;;;;;7.90;4.90;;;9.20;99.90;;;;;;5021565;28;20030;-86
2023/09/24 06:10:37;;;;;;;6.47;4.82;;;9.20;99.90;;;;;;5035377;28;20013;-86
2023/09/24 06:13:02;;;;;;;6.47;4.63;;;9.20;99.90;;;;;;5027531;28;20057;-87
2023/09/24 06:15:28;;;;;;;4.43;4.03;;;9.30;99.90;;;;;;5035304;28;20022;-86
2023/09/24 06:17:54;;;;;;;6.53;5.30;;;9.30;99.90;;;;;;5025794;28;20026;-86
2023/09/24 06:20:19;;;;;;;6.43;4.93;;;9.30;99.90;;;;;;5037129;28;20076;-87
2023/09/24 06:22:52;;;;;;;5.95;5.35;;;9.30;99.90;;;;;;5034129;28;20085;-86
2023/09/24 06:25:18;;;;;;;6.25;5.10;;;9.40;99.90;;;;;;5028458;28;20233;-86
2023/09/24 06:27:43;;;;;;;6.65;5.03;;;9.40;99.90;;;;;;5035900;28;20027;-85
2023/09/24 06:30:10;;;;;;;5.15;4.65;;;9.40;99.90;;;;;;5026580;28;20003;-86
2023/09/24 06:32:36;;;;;;;6.18;5.05;;;9.50;99.90;;;;;;5043268;28;20112;-86
2023/09/24 06:35:03;;;;;;;6.45;5.25;;;9.50;99.90;;;;;;5037545;28;20010;-87
2023/09/24 06:37:29;;;;;;;7.07;5.47;;;9.50;99.90;;;;;;5035245;28;20021;-86
2023/09/24 06:39:55;;;;;;;6.70;5.15;;;9.60;99.90;;;;;;5028371;28;20038;-88
2023/09/24 06:42:21;;;;;;;7.68;5.15;;;9.60;99.90;;;;;;5032409;28;20030;-87
2023/09/24 06:44:47;;;;;;;7.25;5.43;;;9.60;99.90;;;;;;5038831;28;20038;-87
2023/09/24 06:47:13;;;;;;;5.93;5.15;;;9.70;99.90;;;;;;5030120;28;20032;-86
2023/09/24 06:49:38;;;;;;;5.57;5.07;;;9.80;99.90;;;;;;5030762;28;20096;-87
2023/09/24 06:52:04;;;;;;;8.38;5.32;;;9.80;99.90;;;;;;5034775;28;20036;-86
2023/09/24 06:54:32;;;;;;;7.85;5.55;;;9.80;99.90;;;;;;5030635;28;20033;-87
2023/09/24 06:56:58;;;;;;;6.32;5.50;;;9.90;99.90;;;;;;5032102;28;20038;-87
2023/09/24 06:59:24;;;;;;;8.18;6.10;;;10.00;99.90;;;;;;5036117;28;20057;-87
2023/09/24 07:01:50;;;;;;;5.93;5.07;;;10.10;99.90;;;;;;5031518;28;20029;-86
2023/09/24 07:04:16;;;;;;;6.65;5.10;;;10.10;99.90;;;;;;5048222;28;20026;-87
2023/09/24 07:06:42;;;;;;;9.70;5.03;;;10.20;99.90;;;;;;5038989;28;20033;-86
2023/09/24 07:09:08;;;;;;;6.90;5.65;;;10.20;99.90;;;;;;5032883;28;20137;-88
2023/09/24 07:11:37;;;;;;;7.25;5.82;;;10.30;99.90;;;;;;5037572;28;20066;-89
2023/09/24 07:14:06;;;;;;;7.28;5.47;;;10.40;99.90;;;;;;5036755;28;20026;-86
2023/09/24 07:16:32;;;;;;;9.00;5.85;;;10.50;99.90;;;;;;5029960;28;20077;-87
2023/09/24 07:19:01;;;;;;;11.18;5.70;;;10.50;99.90;;;;;;5028599;28;20013;-86
2023/09/24 07:21:28;;;;;;;7.35;5.15;;;10.60;99.90;;;;;;5030125;28;20017;-88
2023/09/24 07:23:58;;;;;;;4.78;4.28;;;10.70;99.90;;;;;;5040698;28;20038;-86
2023/09/24 07:26:28;;;;;;;8.65;4.95;;;10.80;99.90;;;;;;5028831;28;20053;-86
2023/09/24 07:28:54;;;;;;;8.63;5.00;;;10.80;99.90;;;;;;5039223;28;20015;-88
2023/09/24 07:31:25;;;;;;;7.55;4.80;;;10.90;99.90;;;;;;5033888;28;20006;-88
2023/09/24 07:33:52;;;;;;;8.77;4.35;;;11.00;99.90;;;;;;5048836;28;20056;-87
2023/09/24 07:36:19;;;;;;;8.30;4.88;;;11.10;99.90;;;;;;5027759;28;20018;-87
2023/09/24 07:38:49;;;;;;;6.40;3.78;;;11.30;99.90;;;;;;5039581;28;20037;-88
2023/09/24 07:41:16;;;;;;;5.10;3.97;;;11.40;99.90;;;;;;5029973;28;20116;-89
2023/09/24 07:43:42;;;;;;;6.32;4.20;;;11.50;99.90;;;;;;5031588;28;20050;-88
2023/09/24 07:46:12;;;;;;;6.68;4.00;;;11.60;99.90;;;;;;5034688;28;20045;-89
2023/09/24 07:48:39;;;;;;;7.85;4.20;;;11.70;99.90;;;;;;5045860;28;20021;-88
2023/09/24 07:51:05;;;;;;;5.13;3.55;;;11.80;99.90;;;;;;5030243;28;20126;-88
2023/09/24 07:53:31;;;;;;;10.07;4.53;;;12.00;99.90;;;;;;5036397;28;20093;-89
2023/09/24 07:55:58;;;;;;;5.03;2.92;;;12.10;99.90;;;;;;5027262;28;20025;-88
2023/09/24 07:58:24;;;;;;;5.60;3.28;;;12.20;99.90;;;;;;5037741;28;20022;-87
2023/09/24 08:00:51;;;;;;;5.63;3.13;;;12.30;99.90;;;;;;5041411;28;20040;-87
2023/09/24 08:03:17;;;;;;;3.80;2.80;;;12.40;99.90;;;;;;5033671;28;20038;-85
2023/09/24 08:05:42;;;;;;;2.97;2.30;;;12.50;99.90;;;;;;5029254;28;20041;-87
2023/09/24 08:08:12;;;;;;;4.32;2.05;;;12.60;99.90;;;;;;5030396;28;20006;-88
2023/09/24 08:10:38;;;;;;;3.78;2.15;;;12.70;99.90;;;;;;5034178;28;20026;-87
2023/09/24 08:13:03;;;;;;;2.97;1.85;;;12.80;99.90;;;;;;5033286;28;20064;-87
2023/09/24 08:15:29;;;;;;;3.65;2.53;;;13.00;99.90;;;;;;5033063;28;20022;-88
2023/09/24 08:17:56;;;;;;;2.45;1.98;;;13.10;99.90;;;;;;5024481;28;20120;-87
2023/09/24 08:20:21;;;;;;;2.25;1.40;;;13.20;99.90;;;;;;5029107;28;20038;-86
2023/09/24 08:22:47;;;;;;;6.95;2.28;;;13.30;99.90;;;;;;5021886;28;20098;-87
2023/09/24 08:25:13;;;;;;;5.10;1.60;;;13.50;99.90;;;;;;5017670;28;20061;-88
2023/09/24 08:27:39;;;;;;;5.90;1.80;;;13.50;99.90;;;;;;5028286;28;20017;-87
2023/09/24 08:30:05;;;;;;;1.98;1.52;;;13.70;99.90;;;;;;5019421;28;20026;-88
2023/09/24 08:32:31;;;;;;;2.42;1.63;;;13.70;99.90;;;;;;5033110;28;20014;-88
2023/09/24 08:34:56;;;;;;;1.60;1.35;;;13.80;99.90;;;;;;5023121;28;20085;-88
2023/09/24 08:37:22;;;;;;;6.63;2.13;;;13.90;99.90;;;;;;5029273;28;19998;-89
2023/09/24 08:39:47;;;;;;;3.25;1.30;;;14.00;99.90;;;;;;5030618;28;20010;-87
2023/09/24 08:42:17;;;;;;;3.85;1.42;;;14.00;99.90;;;;;;5024322;28;20088;-88
2023/09/24 08:44:47;;;;;;;4.90;2.63;;;14.10;99.90;;;;;;5027696;28;20018;-87
2023/09/24 08:47:13;;;;;;;9.02;1.90;;;14.20;99.90;;;;;;5025704;28;20117;-87
2023/09/24 08:49:40;;;;;;;2.75;1.35;;;14.20;99.90;;;;;;5024256;28;20031;-88
2023/09/24 08:52:08;;;;;;;3.03;1.48;;;14.30;99.90;;;;;;5035176;28;20053;-87
2023/09/24 08:54:34;;;;;;;2.88;1.63;;;14.40;99.90;;;;;;5029899;28;20024;-88
2023/09/24 08:56:59;;;;;;;4.18;1.70;;;14.50;99.90;;;;;;5029716;28;20017;-85
2023/09/24 08:59:26;;;;;;;4.43;1.85;;;14.50;99.90;;;;;;5041427;28;20106;-87
2023/09/24 09:01:54;;;;;;;3.40;1.80;;;14.60;99.90;;;;;;5021749;28;20038;-86
2023/09/24 09:04:20;;;;;;;2.08;1.75;;;14.60;99.90;;;;;;5027545;28;20099;-87
2023/09/24 09:06:46;;;;;;;3.40;1.90;;;14.80;99.90;;;;;;5035517;28;20026;-88
2023/09/24 09:09:26;;;;;;;5.45;2.35;;;14.80;99.90;;;;;;5031268;28;20056;-87
2023/09/24 09:11:51;;;;;;;5.35;1.98;;;14.90;99.90;;;;;;5029404;28;20041;-88
2023/09/24 09:14:33;;;;;;;4.70;2.53;;;14.90;99.90;;;;;;5028863;28;20093;-86
2023/09/24 09:16:59;;;;;;;4.32;2.92;;;15.00;99.90;;;;;;5027716;28;20252;-88
2023/09/24 09:19:25;;;;;;;5.38;2.53;;;15.00;99.90;;;;;;5032110;28;19999;-88
2023/09/24 09:21:50;;;;;;;2.90;1.83;;;15.10;99.90;;;;;;5033380;28;20085;-89
2023/09/24 09:24:25;;;;;;;3.05;2.00;;;15.10;99.90;;;;;;5024631;28;20033;-87
2023/09/24 09:26:57;;;;;;;4.65;2.15;;;15.20;99.90;;;;;;5027652;28;20041;-88
2023/09/24 09:29:25;;;;;;;3.72;2.47;;;15.30;99.90;;;;;;5029065;28;20041;-88
2023/09/24 09:31:52;;;;;;;5.95;2.53;;;15.30;99.90;;;;;;5032847;28;20029;-87
2023/09/24 09:34:18;;;;;;;5.82;4.00;;;15.40;99.90;;;;;;5033452;28;20006;-87
2023/09/24 09:36:43;;;;;;;5.38;2.60;;;15.40;99.90;;;;;;5029337;28;20014;-88
2023/09/24 09:39:09;;;;;;;4.30;2.67;;;15.50;99.90;;;;;;5032717;28;20108;-89
2023/09/24 09:41:35;;;;;;;3.38;1.85;;;15.60;99.90;;;;;;5027729;28;20101;-87
2023/09/24 09:44:07;;;;;;;3.33;1.67;;;15.60;99.90;;;;;;5029130;28;20018;-87
2023/09/24 09:46:34;;;;;;;2.78;1.67;;;15.70;99.90;;;;;;5024226;28;20034;-88
2023/09/24 09:49:04;;;;;;;2.58;1.63;;;15.80;99.90;;;;;;5028524;28;20034;-87
2023/09/24 09:51:45;;;;;;;4.60;2.05;;;15.80;99.90;;;;;;5030456;28;20152;-88
2023/09/24 09:54:13;;;;;;;1.77;1.48;;;15.90;99.90;;;;;;5027348;28;20056;-88
2023/09/24 09:56:39;;;;;;;3.40;1.60;;;16.10;99.90;;;;;;5032118;28;20034;-87
2023/09/24 09:59:05;;;;;;;2.75;1.40;;;16.10;99.90;;;;;;5033833;28;20018;-86
2023/09/24 10:01:31;;;;;;;2.42;1.25;;;16.30;99.90;;;;;;5024513;28;20041;-85
2023/09/24 10:03:59;;;;;;;3.60;1.35;;;16.50;99.90;;;;;;5026388;28;20217;-87
2023/09/24 10:06:25;;;;;;;3.88;1.42;;;16.50;99.90;;;;;;5023748;28;20024;-88
2023/09/24 10:08:52;;;;;;;4.97;1.35;;;16.60;99.90;;;;;;5026204;28;20202;-86
2023/09/24 10:11:30;;;;;;;2.63;1.20;;;16.60;99.90;;;;;;5026819;28;20031;-87
2023/09/24 10:13:57;;;;;;;2.33;1.33;;;16.50;99.90;;;;;;5018970;28;20018;-86
2023/09/24 10:16:25;;;;;;;3.10;1.48;;;16.50;99.90;;;;;;5026557;28;20053;-88
2023/09/24 10:18:54;;;;;;;2.97;1.13;;;16.60;99.90;;;;;;5021966;28;20014;-87
2023/09/24 10:21:31;;;;;;;1.85;1.23;;;16.60;99.90;;;;;;5037640;28;20054;-89
2023/09/24 10:23:58;;;;;;;2.95;1.33;;;16.70;99.90;;;;;;5032804;28;20036;-86
2023/09/24 10:26:51;;;;;;;4.82;1.20;;;16.70;99.90;;;;;;5029405;28;20376;-86
2023/09/24 10:29:17;;;;;;;1.88;1.33;;;16.70;99.90;;;;;;5031161;28;20032;-88
2023/09/24 10:32:11;;;;;;;4.50;2.00;;;16.60;99.90;;;;;;5021186;28;20521;-84
2023/09/24 10:35:09;;;;;;;4.55;1.33;;;16.50;99.90;;;;;;5022698;28;20029;-86
2023/09/24 10:37:37;;;;;;;3.10;1.65;;;16.30;99.90;;;;;;5001545;28;20042;-88
2023/09/24 10:40:05;;;;;;;2.90;1.48;;;16.20;99.90;;;;;;5023641;28;20033;-85
2023/09/24 10:42:37;;;;;;;3.40;1.13;;;16.20;99.90;;;;;;5018268;28;20115;-87
2023/09/24 10:45:06;;;;;;;1.35;0.90;;;16.10;99.90;;;;;;5029154;28;20033;-87
2023/09/24 10:47:36;;;;;;;5.30;1.63;;;16.10;99.90;;;;;;5031966;28;20022;-84
2023/09/24 10:50:15;;;;;;;2.22;1.00;;;16.10;99.90;;;;;;5028037;28;20032;-86
2023/09/24 10:52:59;;;;;;;2.95;1.50;;;16.10;99.90;;;;;;5030692;28;20030;-86
2023/09/24 10:55:30;;;;;;;4.55;1.02;;;16.30;99.90;;;;;;5033698;28;20006;-87
2023/09/24 10:58:17;;;;;;;3.30;1.42;;;16.30;99.90;;;;;;5027639;28;20038;-88
2023/09/24 11:00:44;;;;;;;2.38;1.10;;;16.40;99.90;;;;;;5031114;28;20040;-86
2023/09/24 11:03:13;;;;;;;3.78;1.27;;;16.50;99.90;;;;;;5029428;28;20026;-88
2023/09/24 11:05:47;;;;;;;2.20;1.23;;;16.50;99.90;;;;;;5032901;28;20018;-88
2023/09/24 11:08:15;;;;;;;2.20;1.38;;;16.40;99.90;;;;;;5029710;28;20048;-83
2023/09/24 11:10:41;;;;;;;3.55;1.45;;;16.40;99.90;;;;;;5028222;28;20006;-87
2023/09/24 11:13:07;;;;;;;2.08;1.38;;;16.50;99.90;;;;;;5028768;28;20033;-87
2023/09/24 11:15:35;;;;;;;3.30;1.33;;;16.50;99.90;;;;;;5037551;28;20109;-85
2023/09/24 11:18:01;;;;;;;2.67;1.42;;;16.50;99.90;;;;;;5025531;28;20057;-88
2023/09/24 11:20:34;;;;;;;3.80;1.27;;;16.60;99.90;;;;;;5029344;28;20030;-84
2023/09/24 11:23:02;;;;;;;2.25;0.93;;;16.60;99.90;;;;;;5028348;28;20039;-85
2023/09/24 11:25:30;;;;;;;1.73;0.93;;;16.60;99.90;;;;;;5027789;28;20058;-86
2023/09/24 11:27:58;;;;;;;3.55;1.90;;;16.60;99.90;;;;;;5017274;28;20236;-87
2023/09/24 11:30:28;;;;;;;3.88;1.75;;;16.70;99.90;;;;;;5023834;28;20075;-85
2023/09/24 11:32:54;;;;;;;2.40;1.40;;;16.70;99.90;;;;;;5033457;28;20507;-86
2023/09/24 11:35:22;;;;;;;4.22;2.65;;;16.80;99.90;;;;;;5023355;28;20037;-84
2023/09/24 11:37:59;;;;;;;5.97;2.42;;;16.80;99.90;;;;;;5034108;28;20014;-85
2023/09/24 11:40:27;;;;;;;2.88;1.83;;;16.80;99.90;;;;;;5030443;28;20085;-86
2023/09/24 11:42:57;;;;;;;3.75;2.40;;;16.80;99.90;;;;;;5035841;28;20026;-83
2023/09/24 11:45:50;;;;;;;2.75;1.42;;;16.80;99.90;;;;;;5024261;28;20041;-88
2023/09/24 11:48:21;;;;;;;1.38;1.27;;;16.80;99.90;;;;;;5028124;28;20021;-86
2023/09/24 11:50:47;;;;;;;2.88;1.98;;;16.80;99.90;;;;;;5028389;28;20018;-83
2023/09/24 11:53:14;;;;;;;2.65;1.70;;;16.80;99.90;;;;;;5029950;28;20056;-86
2023/09/24 11:55:42;;;;;;;3.60;1.60;;;16.80;99.90;;;;;;5042683;28;20035;-88
2023/09/24 11:58:09;;;;;;;1.48;1.30;;;16.90;99.90;;;;;;5025560;28;20027;-86
2023/09/24 12:00:36;;;;;;;1.88;1.50;;;16.90;99.90;;;;;;5019850;28;20102;-86
2023/09/24 12:03:04;;;;;;;1.88;1.45;;;16.80;99.90;;;;;;5026646;28;20026;-86
2023/09/24 12:05:33;;;;;;;2.33;1.83;;;16.80;99.90;;;;;;5024796;28;20010;-86
2023/09/24 12:07:59;;;;;;;2.63;2.10;;;16.70;99.90;;;;;;5029877;28;20030;-86
2023/09/24 12:10:25;;;;;;;1.52;1.42;;;16.70;99.90;;;;;;5027391;28;20010;-86
2023/09/24 12:12:51;;;;;;;2.70;1.70;;;16.70;99.90;;;;;;5028328;28;20032;-86
2023/09/24 12:15:18;;;;;;;2.55;1.60;;;16.80;99.90;;;;;;5030999;28;20032;-84
2023/09/24 12:17:45;;;;;;;2.35;1.55;;;16.80;99.90;;;;;;5029367;28;20351;-84
2023/09/24 12:20:12;;;;;;;1.63;1.52;;;16.80;99.90;;;;;;5021030;28;20379;-85
2023/09/24 12:22:41;;;;;;;2.88;1.67;;;16.90;99.90;;;;;;5024948;28;20360;-86
2023/09/24 12:25:11;;;;;;;2.05;1.17;;;16.90;99.90;;;;;;5024621;28;20045;-87
2023/09/24 12:27:37;;;;;;;5.75;1.40;;;16.90;99.90;;;;;;5020774;28;20077;-84
2023/09/24 12:30:05;;;;;;;2.03;1.10;;;16.80;99.90;;;;;;5015045;28;20060;-84
2023/09/24 12:32:32;;;;;;;2.53;1.42;;;16.80;99.90;;;;;;5013498;28;20112;-84
2023/09/24 12:34:58;;;;;;;3.00;1.30;;;16.80;99.90;;;;;;5017826;28;20021;-84
2023/09/24 12:37:23;;;;;;;1.20;1.10;;;16.80;99.90;;;;;;5006961;28;20025;-86
2023/09/24 12:39:49;;;;;;;1.42;1.00;;;16.80;99.90;;;;;;5005103;28;20023;-84
2023/09/24 12:42:14;;;;;;;1.70;1.40;;;16.80;99.90;;;;;;5008123;28;20037;-84
2023/09/24 12:44:40;;;;;;;1.77;1.25;;;16.80;99.90;;;;;;5002058;28;20030;-85
2023/09/24 12:47:05;;;;;;;1.50;1.40;;;16.80;99.90;;;;;;5009924;28;20113;-84
2023/09/24 12:49:31;;;;;;;1.90;1.40;;;16.90;99.90;;;;;;5016052;28;20064;-83